createdAt,value
2023-03-06T00:01:52.031Z,105.80
2023-03-06T00:04:19.417Z,107.65
2023-03-06T00:06:46.853Z,94.93
2023-03-06T00:09:14.436Z,86.78
2023-03-06T00:11:41.890Z,93.57
2023-03-06T00:14:09.309Z,91.90
2023-03-06T00:16:36.893Z,85.47
2023-03-06T00:19:04.308Z,78.80
2023-03-06T00:21:31.879Z,81.70
2023-03-06T00:23:59.303Z,85.78
2023-03-06T00:26:27.874Z,90.70
2023-03-06T00:28:55.340Z,96.63
2023-03-06T00:31:22.812Z,94.38
2023-03-06T00:33:50.228Z,93.38
2023-03-06T00:36:17.756Z,93.93
2023-03-06T00:38:45.209Z,99.38
2023-03-06T00:41:13.080Z,96.13
2023-03-06T00:43:40.608Z,101.80
2023-03-06T00:46:08.257Z,99.80
2023-03-06T00:48:35.855Z,100.72
2023-03-06T00:51:03.257Z,96.78
2023-03-06T00:53:30.711Z,98.03
2023-03-06T00:55:58.194Z,96.63
2023-03-06T00:58:25.677Z,94.10
2023-03-06T01:00:53.285Z,95.07
2023-03-06T01:03:20.688Z,94.47
2023-03-06T01:05:48.187Z,97.15
2023-03-06T01:08:15.791Z,95.65
2023-03-06T01:10:43.194Z,97.80
2023-03-06T01:13:10.632Z,96.38
2023-03-06T01:15:38.074Z,90.40
2023-03-06T01:18:05.467Z,98.60
2023-03-06T01:20:32.919Z,92.57
2023-03-06T01:23:00.468Z,92.65
2023-03-06T01:25:27.905Z,97.82
2023-03-06T01:27:55.260Z,96.20
2023-03-06T01:30:22.713Z,98.53
2023-03-06T01:32:50.170Z,96.47
2023-03-06T01:35:17.856Z,95.45
2023-03-06T01:37:48.031Z,102.63
2023-03-06T01:40:15.418Z,102.30
2023-03-06T01:42:42.820Z,94.50
2023-03-06T01:45:16.322Z,86.38
2023-03-06T01:47:44.924Z,80.15
2023-03-06T01:50:12.320Z,74.57
2023-03-06T01:52:40.895Z,74.25
2023-03-06T01:55:12.015Z,72.93
2023-03-06T01:57:40.656Z,63.22
2023-03-06T02:00:14.236Z,66.38
2023-03-06T02:02:43.033Z,63.97
2023-03-06T02:05:10.746Z,60.13
2023-03-06T02:07:38.287Z,58.35
2023-03-06T02:10:06.281Z,63.15
2023-03-06T02:12:33.800Z,65.63
2023-03-06T02:15:01.225Z,68.55
2023-03-06T02:17:28.830Z,71.30
2023-03-06T02:19:59.473Z,68.88
2023-03-06T02:22:27.214Z,70.28
2023-03-06T02:24:59.599Z,74.80
2023-03-06T02:27:27.037Z,74.07
2023-03-06T02:29:54.502Z,71.78
2023-03-06T02:32:21.924Z,68.15
2023-03-06T02:34:53.815Z,72.50
2023-03-06T02:37:21.525Z,72.80
2023-03-06T02:39:51.052Z,76.00
2023-03-06T02:42:19.210Z,69.43
2023-03-06T02:44:46.671Z,71.90
2023-03-06T02:47:14.107Z,71.57
2023-03-06T02:49:41.526Z,69.28
2023-03-06T02:52:08.914Z,71.50
2023-03-06T02:54:36.374Z,71.15
2023-03-06T02:57:03.786Z,73.72
2023-03-06T02:59:31.242Z,69.93
2023-03-06T03:01:58.726Z,68.70
2023-03-06T03:04:26.119Z,67.53
2023-03-06T03:06:53.553Z,67.03
2023-03-06T03:09:20.930Z,66.78
2023-03-06T03:11:48.359Z,66.85
2023-03-06T03:14:17.033Z,65.20
2023-03-06T03:16:45.437Z,64.70
2023-03-06T03:19:12.840Z,62.13
2023-03-06T03:21:41.181Z,60.95
2023-03-06T03:24:09.079Z,60.33
2023-03-06T03:26:36.573Z,56.70
2023-03-06T03:29:05.247Z,66.07
2023-03-06T03:31:32.960Z,69.05
2023-03-06T03:34:00.669Z,66.60
2023-03-06T03:36:28.135Z,58.78
2023-03-06T03:38:55.683Z,52.15
2023-03-06T03:41:23.097Z,53.53
2023-03-06T03:43:50.510Z,54.05
2023-03-06T03:46:18.042Z,54.70
2023-03-06T03:48:45.415Z,52.78
2023-03-06T03:51:13.394Z,56.33
2023-03-06T03:53:40.841Z,54.38
2023-03-06T03:56:08.305Z,54.05
2023-03-06T03:58:35.795Z,57.88
2023-03-06T04:01:03.207Z,57.78
2023-03-06T04:03:30.664Z,56.13
2023-03-06T04:05:58.207Z,60.45
2023-03-06T04:08:25.942Z,60.53
2023-03-06T04:10:53.644Z,55.45
2023-03-06T04:13:22.157Z,58.85
2023-03-06T04:15:50.161Z,66.93
2023-03-06T04:18:17.836Z,64.88
2023-03-06T04:20:45.752Z,70.25
2023-03-06T04:23:13.308Z,72.30
2023-03-06T04:25:40.847Z,75.28
2023-03-06T04:28:08.274Z,82.35
2023-03-06T04:30:35.710Z,81.38
2023-03-06T04:33:03.231Z,68.30
2023-03-06T04:35:30.716Z,64.15
2023-03-06T04:37:58.188Z,75.18
2023-03-06T04:40:29.786Z,61.17
2023-03-06T04:42:57.737Z,79.70
2023-03-06T04:45:25.400Z,79.07
2023-03-06T04:47:52.834Z,123.43
2023-03-06T04:50:20.376Z,93.97
2023-03-06T04:52:47.774Z,101.63
2023-03-06T04:55:15.655Z,114.50
2023-03-06T04:57:43.742Z,109.97
2023-03-06T05:00:14.906Z,93.65
2023-03-06T05:02:43.298Z,106.03
2023-03-06T05:05:11.033Z,79.32
2023-03-06T05:07:38.552Z,70.40
2023-03-06T05:10:06.300Z,72.30
2023-03-06T05:12:36.297Z,76.40
2023-03-06T05:15:04.466Z,69.43
2023-03-06T05:17:31.917Z,66.80
2023-03-06T05:19:59.389Z,70.65
2023-03-06T05:22:26.805Z,73.88
2023-03-06T05:24:54.285Z,65.75
2023-03-06T05:27:21.780Z,61.80
2023-03-06T05:29:49.173Z,69.40
2023-03-06T05:32:17.244Z,66.38
2023-03-06T05:34:44.758Z,64.85
2023-03-06T05:37:12.220Z,70.85
2023-03-06T05:39:39.828Z,69.20
2023-03-06T05:42:07.388Z,66.40
2023-03-06T05:44:35.297Z,61.05
2023-03-06T05:47:02.759Z,65.25
2023-03-06T05:49:34.013Z,64.60
2023-03-06T05:52:01.743Z,59.20
2023-03-06T05:54:29.309Z,58.85
2023-03-06T05:56:57.629Z,61.42
2023-03-06T05:59:28.310Z,64.68
2023-03-06T06:01:56.215Z,61.72
2023-03-06T06:04:24.023Z,64.53
2023-03-06T06:06:55.155Z,66.00
2023-03-06T06:09:22.668Z,65.22
2023-03-06T06:11:53.864Z,72.90
2023-03-06T06:14:21.389Z,75.07
2023-03-06T06:16:48.846Z,80.05
2023-03-06T06:19:19.003Z,81.78
2023-03-06T06:21:47.528Z,77.20
2023-03-06T06:24:15.653Z,68.97
2023-03-06T06:26:43.137Z,62.33
2023-03-06T06:29:10.846Z,64.95
2023-03-06T06:31:38.403Z,54.38
2023-03-06T06:34:06.631Z,55.28
2023-03-06T06:36:34.456Z,56.05
2023-03-06T06:39:01.932Z,53.38
2023-03-06T06:41:46.573Z,53.85
2023-03-06T06:44:17.698Z,61.97
2023-03-06T06:49:33.346Z,77.25
2023-03-06T06:52:00.990Z,75.53
2023-03-06T06:54:28.537Z,72.57
2023-03-06T06:56:56.117Z,69.13
2023-03-06T06:59:24.152Z,59.08
2023-03-06T07:01:52.508Z,57.17
2023-03-06T07:04:20.166Z,51.83
2023-03-06T07:06:47.737Z,51.78
2023-03-06T07:09:15.267Z,50.65
2023-03-06T07:11:42.752Z,52.15
2023-03-06T07:14:10.151Z,50.72
2023-03-06T07:16:37.682Z,56.03
2023-03-06T07:19:06.116Z,57.20
2023-03-06T07:21:33.806Z,67.50
2023-03-06T07:24:01.292Z,71.15
2023-03-06T07:26:28.912Z,75.95
2023-03-06T07:28:56.720Z,71.82
2023-03-06T07:31:25.218Z,74.30
2023-03-06T07:33:55.336Z,59.70
2023-03-06T07:36:23.375Z,55.42
2023-03-06T07:38:51.243Z,52.95
2023-03-06T07:41:21.871Z,51.58
2023-03-06T07:43:49.997Z,44.90
2023-03-06T07:46:17.556Z,48.20
2023-03-06T07:48:45.095Z,49.88
2023-03-06T07:51:19.435Z,50.75
2023-03-06T07:53:47.241Z,47.00
2023-03-06T07:56:14.901Z,46.83
2023-03-06T07:58:43.814Z,45.85
2023-03-06T08:01:12.894Z,44.10
2023-03-06T08:06:14.272Z,54.97
2023-03-06T08:08:42.246Z,50.47
2023-03-06T08:11:10.010Z,54.20
2023-03-06T08:13:38.631Z,52.88
2023-03-06T08:16:06.547Z,57.60
2023-03-06T08:18:34.179Z,59.30
2023-03-06T08:21:21.993Z,58.30
2023-03-06T08:23:49.587Z,59.05
2023-03-06T08:26:20.737Z,57.97
2023-03-06T08:28:48.302Z,56.85
2023-03-06T08:31:25.470Z,49.15
2023-03-06T08:33:59.012Z,45.88
2023-03-06T08:36:30.237Z,44.40
2023-03-06T08:39:01.122Z,45.58
2023-03-06T08:41:32.210Z,46.22
2023-03-06T08:44:00.020Z,47.08
2023-03-06T08:48:57.163Z,44.63
2023-03-06T08:51:25.144Z,42.25
2023-03-06T08:53:52.815Z,44.28
2023-03-06T08:58:57.796Z,44.80
2023-03-06T09:01:26.490Z,56.65
2023-03-06T09:03:57.814Z,82.35
2023-03-06T09:06:27.745Z,81.63
2023-03-06T09:08:55.337Z,84.47
2023-03-06T09:11:23.355Z,86.10
2023-03-06T09:22:43.877Z,74.97
2023-03-06T09:25:13.682Z,75.57
2023-03-06T09:27:42.249Z,74.82
2023-03-06T09:30:12.579Z,68.78
2023-03-06T09:32:40.216Z,54.25
2023-03-06T09:35:07.923Z,57.50
2023-03-06T09:37:35.444Z,54.47
2023-03-06T09:40:03.028Z,58.88
2023-03-06T09:42:36.238Z,49.10
2023-03-06T09:45:05.777Z,38.30
2023-03-06T09:47:33.693Z,38.28
2023-03-06T09:50:19.755Z,41.10
2023-03-06T09:53:18.022Z,37.47
2023-03-06T09:55:47.372Z,33.45
2023-03-06T10:01:17.728Z,35.25
2023-03-06T10:04:07.982Z,36.88
2023-03-06T10:06:47.791Z,35.97
2023-03-06T10:09:20.033Z,33.25
2023-03-06T10:12:19.526Z,32.20
2023-03-06T10:14:49.384Z,30.75
2023-03-06T10:17:20.560Z,29.15
2023-03-06T10:19:48.487Z,28.85
2023-03-06T10:22:26.548Z,29.60
2023-03-06T10:25:12.894Z,28.55
2023-03-06T10:27:50.949Z,25.58
2023-03-06T10:30:58.998Z,28.02
2023-03-06T10:33:44.722Z,27.83
2023-03-06T10:36:13.854Z,24.88
2023-03-06T10:41:14.693Z,26.42
2023-03-06T10:43:43.029Z,27.95
2023-03-06T10:46:19.437Z,27.27
2023-03-06T10:48:47.301Z,27.38
2023-03-06T10:51:24.540Z,27.30
2023-03-06T10:53:56.243Z,25.60
2023-03-06T10:56:30.760Z,26.38
2023-03-06T10:59:14.920Z,25.00
2023-03-06T11:01:43.101Z,26.92
2023-03-06T11:04:17.046Z,25.48
2023-03-06T11:06:44.653Z,27.40
2023-03-06T11:09:18.099Z,27.55
2023-03-06T11:11:45.866Z,30.08
2023-03-06T11:14:17.565Z,26.92
2023-03-06T11:16:53.310Z,25.95
2023-03-06T11:19:23.125Z,25.83
2023-03-06T11:22:03.898Z,26.85
2023-03-06T11:24:38.442Z,27.30
2023-03-06T11:27:20.305Z,26.00
2023-03-06T11:29:48.557Z,23.42
2023-03-06T11:32:17.656Z,22.58
2023-03-06T11:34:50.293Z,19.42
2023-03-06T11:37:22.050Z,17.38
2023-03-06T11:39:51.419Z,16.88
2023-03-06T11:42:24.383Z,18.15
2023-03-06T11:45:07.278Z,19.25
2023-03-06T11:47:36.362Z,21.35
2023-03-06T11:50:31.785Z,21.50
2023-03-06T11:53:05.286Z,22.38
2023-03-06T11:55:45.934Z,21.23
2023-03-06T11:58:28.547Z,17.42
2023-03-06T12:01:01.773Z,16.95
2023-03-06T12:03:40.258Z,12.90
2023-03-06T12:06:13.794Z,13.02
2023-03-06T12:09:06.761Z,12.18
2023-03-06T12:11:43.221Z,13.00
2023-03-06T12:14:23.000Z,9.50
2023-03-06T12:17:23.578Z,7.95
2023-03-06T12:20:47.659Z,8.02
2023-03-06T12:29:55.934Z,10.10
2023-03-06T12:32:29.076Z,10.85
2023-03-06T12:35:15.415Z,11.18
2023-03-06T12:38:01.169Z,9.43
2023-03-06T12:40:28.687Z,9.85
2023-03-06T12:43:14.505Z,11.00
2023-03-06T12:45:44.385Z,7.22
2023-03-06T12:48:19.578Z,7.78
2023-03-06T12:56:22.673Z,9.38
2023-03-06T12:59:27.559Z,9.15
2023-03-06T13:02:14.379Z,7.70
2023-03-06T13:04:50.918Z,7.75
2023-03-06T13:07:18.435Z,9.98
2023-03-06T13:09:48.925Z,9.98
2023-03-06T13:12:26.961Z,9.85
2023-03-06T13:14:58.694Z,10.25
2023-03-06T13:17:29.579Z,8.18
2023-03-06T13:20:15.741Z,9.15
2023-03-06T13:22:43.707Z,8.45
2023-03-06T13:25:22.695Z,7.47
2023-03-06T13:37:20.136Z,7.88
2023-03-06T13:39:59.795Z,8.75
2023-03-06T13:42:27.832Z,8.95
2023-03-06T13:44:59.112Z,9.57
2023-03-06T13:50:45.331Z,8.60
2023-03-06T13:53:13.493Z,7.95
2023-03-06T13:55:44.124Z,7.72
2023-03-06T13:58:26.330Z,7.03
2023-03-06T14:01:00.200Z,6.57
2023-03-06T14:03:58.295Z,6.45
2023-03-06T14:06:46.084Z,7.57
2023-03-06T14:09:43.182Z,6.65
2023-03-06T14:12:26.919Z,6.97
2023-03-06T14:14:56.795Z,6.50
2023-03-06T14:17:26.577Z,7.35
2023-03-06T14:19:54.123Z,7.60
2023-03-06T14:22:24.144Z,8.30
2023-03-06T14:24:58.412Z,6.97
2023-03-06T14:27:39.927Z,6.20
2023-03-06T14:30:08.510Z,6.75
2023-03-06T14:35:06.971Z,7.75
2023-03-06T14:37:34.573Z,7.97
2023-03-06T14:40:07.144Z,9.57
2023-03-06T14:42:38.021Z,11.02
2023-03-06T14:45:18.876Z,7.72
2023-03-06T14:47:54.812Z,5.47
2023-03-06T14:50:51.770Z,6.00
2023-03-06T14:53:23.536Z,11.13
2023-03-06T14:55:56.840Z,6.88
2023-03-06T14:58:34.074Z,6.95
2023-03-06T15:01:10.978Z,7.18
2023-03-06T15:03:43.325Z,8.98
2023-03-06T15:06:12.717Z,9.43
2023-03-06T15:08:46.736Z,8.82
2023-03-06T15:11:14.378Z,8.50
2023-03-06T15:13:42.166Z,9.63
2023-03-06T15:16:29.000Z,9.63
2023-03-06T15:19:03.329Z,13.73
2023-03-06T15:21:39.932Z,14.45
2023-03-06T15:24:26.347Z,11.93
2023-03-06T15:26:54.145Z,13.00
2023-03-06T15:29:25.949Z,12.15
2023-03-06T15:31:53.614Z,12.25
2023-03-06T15:34:32.788Z,14.10
2023-03-06T15:39:40.278Z,13.05
2023-03-06T15:42:13.754Z,10.95
2023-03-06T15:44:41.208Z,9.10
2023-03-06T15:47:12.165Z,9.35
2023-03-06T15:49:40.130Z,10.98
2023-03-06T15:52:08.000Z,12.25
2023-03-06T15:54:35.763Z,9.63
2023-03-06T15:57:06.641Z,10.30
2023-03-06T15:59:34.743Z,11.02
2023-03-06T16:02:04.021Z,12.77
2023-03-06T16:06:59.162Z,14.95
2023-03-06T16:09:26.962Z,13.85
2023-03-06T16:11:54.765Z,36.60
2023-03-06T16:14:24.183Z,56.55
2023-03-06T16:23:15.237Z,70.15
2023-03-06T16:25:43.424Z,70.40
2023-03-06T16:28:14.875Z,61.17
2023-03-06T16:30:43.091Z,64.15
2023-03-06T16:33:14.055Z,66.07
2023-03-06T16:35:44.572Z,64.05
2023-03-06T16:38:12.103Z,73.90
2023-03-06T16:40:41.621Z,65.40
2023-03-06T16:43:09.466Z,58.83
2023-03-06T16:45:40.281Z,68.05
2023-03-06T16:48:07.854Z,63.53
2023-03-06T16:50:37.818Z,66.28
2023-03-06T16:53:05.424Z,46.50
2023-03-06T16:55:32.900Z,46.40
2023-03-06T16:58:00.459Z,27.15
2023-03-06T17:00:33.246Z,25.05
2023-03-06T17:03:01.202Z,21.77
2023-03-06T17:05:29.024Z,22.00
2023-03-06T17:07:56.826Z,26.67
2023-03-06T17:10:26.536Z,30.48
2023-03-06T17:12:54.421Z,30.95
2023-03-06T17:15:21.998Z,29.20
2023-03-06T17:17:49.573Z,26.83
2023-03-06T17:20:17.108Z,29.27
2023-03-06T17:22:44.611Z,21.65
2023-03-06T17:25:12.124Z,27.50
2023-03-06T17:27:39.687Z,23.70
2023-03-06T17:30:07.536Z,29.08
2023-03-06T17:32:35.018Z,29.13
2023-03-06T17:35:02.494Z,19.75
2023-03-06T17:37:29.910Z,20.00
2023-03-06T17:39:57.365Z,17.45
2023-03-06T17:42:24.862Z,18.73
2023-03-06T17:44:53.139Z,19.75
2023-03-06T17:47:20.574Z,18.00
2023-03-06T17:49:48.107Z,17.23
2023-03-06T17:52:15.554Z,16.60
2023-03-06T17:54:42.969Z,17.52
2023-03-06T17:57:10.493Z,16.92
2023-03-06T17:59:40.926Z,15.68
2023-03-06T18:02:08.477Z,14.77
2023-03-06T18:04:36.017Z,15.73
2023-03-06T18:07:03.499Z,14.88
2023-03-06T18:09:31.078Z,16.17
2023-03-06T18:11:58.466Z,18.92
2023-03-06T18:14:25.878Z,19.48
2023-03-06T18:16:53.460Z,21.85
2023-03-06T18:19:21.038Z,19.92
2023-03-06T18:21:48.802Z,20.67
2023-03-06T18:24:16.259Z,21.55
2023-03-06T18:26:43.799Z,19.38
2023-03-06T18:29:11.214Z,21.70
2023-03-06T18:31:39.690Z,23.75
2023-03-06T18:34:11.531Z,23.73
2023-03-06T18:36:39.248Z,21.55
2023-03-06T18:39:07.321Z,25.48
2023-03-06T18:41:34.782Z,23.38
2023-03-06T18:44:02.469Z,27.58
2023-03-06T18:46:33.643Z,23.98
2023-03-06T18:49:01.227Z,23.48
2023-03-06T18:51:30.616Z,20.90
2023-03-06T18:53:58.642Z,22.20
2023-03-06T18:56:26.131Z,25.42
2023-03-06T18:58:54.209Z,25.98
2023-03-06T19:01:27.396Z,26.75
2023-03-06T19:04:32.438Z,26.75
2023-03-06T19:07:09.121Z,25.52
2023-03-06T19:09:38.158Z,24.13
2023-03-06T19:12:05.876Z,25.52
2023-03-06T19:14:33.661Z,22.92
2023-03-06T19:17:02.107Z,23.95
2023-03-06T19:19:30.239Z,26.58
2023-03-06T19:22:01.880Z,34.35
2023-03-06T19:24:29.459Z,74.47
2023-03-06T19:26:57.091Z,84.88
2023-03-06T19:29:25.970Z,70.68
2023-03-06T19:31:53.517Z,61.50
2023-03-06T19:34:23.880Z,56.28
2023-03-06T19:36:51.443Z,48.45
2023-03-06T19:39:19.077Z,48.53
2023-03-06T19:41:47.624Z,51.65
2023-03-06T19:44:16.374Z,51.97
2023-03-06T19:46:43.915Z,52.05
2023-03-06T19:49:16.949Z,49.55
2023-03-06T19:51:44.728Z,60.45
2023-03-06T19:54:15.270Z,70.20
2023-03-06T19:56:48.649Z,66.05
2023-03-06T19:59:16.292Z,88.72
2023-03-06T20:01:43.909Z,93.43
2023-03-06T20:04:14.243Z,84.18
2023-03-06T20:06:43.676Z,84.45
2023-03-06T20:09:13.848Z,84.70
2023-03-06T20:12:08.501Z,89.60
2023-03-06T20:14:49.175Z,95.72
2023-03-06T20:17:16.853Z,92.65
2023-03-06T20:19:44.646Z,98.88
2023-03-06T20:22:12.903Z,105.50
2023-03-06T20:24:42.589Z,95.68
2023-03-06T20:27:10.100Z,79.53
2023-03-06T20:29:44.921Z,80.68
2023-03-06T20:32:16.074Z,85.03
2023-03-06T20:34:44.677Z,81.40
2023-03-06T20:37:16.204Z,81.50
2023-03-06T20:39:43.825Z,78.93
2023-03-06T20:42:11.547Z,83.47
2023-03-06T20:44:44.467Z,85.07
2023-03-06T20:47:12.305Z,86.32
2023-03-06T20:49:40.147Z,84.28
2023-03-06T20:52:10.117Z,88.05
2023-03-06T20:54:47.410Z,85.80
2023-03-06T20:57:14.943Z,85.32
2023-03-06T20:59:42.580Z,90.97
2023-03-06T21:02:10.528Z,157.25
2023-03-06T21:04:41.169Z,127.07
2023-03-06T21:07:08.799Z,123.65
2023-03-06T21:09:38.048Z,135.43
2023-03-06T21:12:06.052Z,125.97
2023-03-06T21:14:33.545Z,131.20
2023-03-06T21:17:01.600Z,138.18
2023-03-06T21:19:29.338Z,120.05
2023-03-06T21:21:59.938Z,111.45
2023-03-06T21:24:27.458Z,111.25
2023-03-06T21:26:55.179Z,106.53
2023-03-06T21:29:25.416Z,113.70
2023-03-06T21:31:52.879Z,111.35
2023-03-06T21:34:20.580Z,111.07
2023-03-06T21:36:48.289Z,92.65
2023-03-06T21:39:15.752Z,100.50
2023-03-06T21:41:43.257Z,84.85
2023-03-06T21:44:11.381Z,73.97
2023-03-06T21:46:38.881Z,78.60
2023-03-06T21:49:06.458Z,87.40
2023-03-06T21:51:34.226Z,92.63
2023-03-06T21:54:03.058Z,92.15
2023-03-06T21:56:33.828Z,108.43
2023-03-06T21:59:01.557Z,100.32
2023-03-06T22:01:29.324Z,102.65
2023-03-06T22:03:57.282Z,103.57
2023-03-06T22:06:25.563Z,98.03
2023-03-06T22:08:53.160Z,98.30
2023-03-06T22:11:28.628Z,104.38
2023-03-06T22:13:56.403Z,105.22
2023-03-06T22:16:23.978Z,83.35
2023-03-06T22:18:51.906Z,83.55
2023-03-06T22:21:20.205Z,96.95
2023-03-06T22:23:57.399Z,103.13
2023-03-06T22:26:24.957Z,88.18
2023-03-06T22:28:52.615Z,96.05
2023-03-06T22:31:21.084Z,66.40
2023-03-06T22:33:51.362Z,63.88
2023-03-06T22:36:18.900Z,64.75
2023-03-06T22:38:46.463Z,71.43
2023-03-06T22:41:16.744Z,86.28
2023-03-06T22:43:44.299Z,84.32
2023-03-06T22:46:12.747Z,75.25
2023-03-06T22:48:40.332Z,75.93
2023-03-06T22:51:09.475Z,68.97
2023-03-06T22:53:37.043Z,73.35
2023-03-06T22:56:05.089Z,70.47
2023-03-06T22:58:35.695Z,67.22
2023-03-06T23:01:07.286Z,62.85
2023-03-06T23:03:38.283Z,75.65
2023-03-06T23:06:09.466Z,80.10
2023-03-06T23:08:38.954Z,87.47
2023-03-06T23:11:15.094Z,85.68
2023-03-06T23:13:42.894Z,83.78
2023-03-06T23:16:10.831Z,86.90
2023-03-06T23:18:38.896Z,84.57
2023-03-06T23:21:13.489Z,88.38
2023-03-06T23:23:41.168Z,93.18
2023-03-06T23:26:08.942Z,85.90
2023-03-06T23:28:36.481Z,91.95
2023-03-06T23:31:07.940Z,87.32
2023-03-06T23:33:35.478Z,84.18
2023-03-06T23:36:03.475Z,90.80
2023-03-06T23:38:31.047Z,94.53
2023-03-06T23:41:02.374Z,86.68
2023-03-06T23:43:29.795Z,76.28
2023-03-06T23:45:57.417Z,74.78
2023-03-06T23:48:24.968Z,71.55
2023-03-06T23:50:52.377Z,61.30
2023-03-06T23:53:19.791Z,63.00
2023-03-06T23:55:48.040Z,64.97
2023-03-06T23:58:15.718Z,73.97
